Time;durP1;ratioP1;P1;durP2;ratioP2;P2;SDS_P1;SDS_P2;PMS_P1;PMS_P2;Temp;Humidity;BMP_temperature;BMP_pressure;BME280_temperature;BME280_humidity;BME280_pressure;Samples;Min_cycle;Max_cycle;Signal;HPM_P1;HPM_P2
2023/04/12 00:01:18;;;;;;;5.43;1.87;;;12.40;97.00;;;;;;4992919;28;20566;-80
2023/04/12 00:03:49;;;;;;;4.07;0.90;;;12.40;97.40;;;;;;4993275;28;20187;-80
2023/04/12 00:06:16;;;;;;;4.97;0.98;;;12.30;97.50;;;;;;4992813;28;20670;-80
2023/04/12 00:08:45;;;;;;;3.22;0.90;;;12.30;98.00;;;;;;4994486;28;20207;-80
2023/04/12 00:11:11;;;;;;;2.45;0.90;;;12.30;98.30;;;;;;4994733;28;20198;-80
2023/04/12 00:13:37;;;;;;;5.90;1.17;;;12.20;98.40;;;;;;4993811;28;20201;-80
2023/04/12 00:16:03;;;;;;;4.93;1.03;;;12.20;99.50;;;;;;4992082;28;21136;-80
2023/04/12 00:18:29;;;;;;;5.40;1.10;;;12.10;99.90;;;;;;4993073;28;20178;-80
2023/04/12 00:20:55;;;;;;;8.40;1.57;;;12.00;99.90;;;;;;4992391;28;20618;-80
2023/04/12 00:23:20;;;;;;;4.17;1.63;;;12.00;99.90;;;;;;4992774;28;20229;-80
2023/04/12 00:25:47;;;;;;;4.77;1.00;;;12.00;99.90;;;;;;4992944;28;20928;-79
2023/04/12 00:28:14;;;;;;;2.72;0.90;;;11.90;99.90;;;;;;4993522;28;20241;-79
2023/04/12 00:30:40;;;;;;;3.17;0.70;;;11.90;99.90;;;;;;4994134;28;20238;-79
2023/04/12 00:33:06;;;;;;;4.32;1.08;;;11.90;99.90;;;;;;4992568;28;20171;-79
2023/04/12 00:35:32;;;;;;;4.00;1.00;;;11.90;99.90;;;;;;4993997;28;20178;-79
2023/04/12 00:37:58;;;;;;;3.47;0.80;;;11.90;99.90;;;;;;4976144;28;20270;-78
2023/04/12 00:40:24;;;;;;;4.80;0.90;;;11.80;99.90;;;;;;4976669;28;21208;-79
2023/04/12 00:42:50;;;;;;;6.30;1.13;;;11.80;99.90;;;;;;4993881;28;20190;-79
2023/04/12 00:45:15;;;;;;;3.33;1.73;;;11.80;99.90;;;;;;5009883;28;20571;-80
2023/04/12 00:47:42;;;;;;;2.60;0.90;;;11.70;99.90;;;;;;5022459;28;20643;-80
2023/04/12 00:50:09;;;;;;;3.72;0.90;;;11.70;99.90;;;;;;5023518;28;20226;-82
2023/04/12 00:52:35;;;;;;;7.13;1.30;;;11.60;99.90;;;;;;5014544;28;20197;-79
2023/04/12 00:55:06;;;;;;;4.93;0.97;;;11.60;99.90;;;;;;4962838;28;20763;-79
2023/04/12 00:57:37;;;;;;;3.65;0.80;;;11.50;99.90;;;;;;4992880;28;20191;-79
2023/04/12 01:00:11;;;;;;;4.78;1.02;;;11.50;99.90;;;;;;4973862;28;20234;-80
2023/04/12 01:02:45;;;;;;;6.30;0.77;;;11.40;99.90;;;;;;4974452;28;20187;-79
2023/04/12 01:05:29;;;;;;;4.20;1.00;;;11.30;99.90;;;;;;4987586;28;20184;-80
2023/04/12 01:08:14;;;;;;;1.50;0.70;;;11.20;99.90;;;;;;4958888;28;20210;-80
2023/04/12 01:10:56;;;;;;;2.08;0.80;;;11.20;99.90;;;;;;4963674;28;20686;-80
2023/04/12 01:13:26;;;;;;;3.25;1.10;;;11.20;99.90;;;;;;4991049;28;20179;-80
2023/04/12 01:16:11;;;;;;;3.25;0.70;;;11.10;99.90;;;;;;5000711;28;20585;-80
2023/04/12 01:18:41;;;;;;;3.75;1.48;;;11.00;99.90;;;;;;4975532;28;20182;-80
2023/04/12 01:21:15;;;;;;;3.58;0.90;;;10.90;99.90;;;;;;4991893;28;20198;-80
2023/04/12 01:23:57;;;;;;;1.90;0.68;;;10.80;99.90;;;;;;4975664;28;20182;-80
2023/04/12 01:26:32;;;;;;;1.73;0.68;;;10.80;99.90;;;;;;4998900;28;20262;-79
2023/04/12 01:29:03;;;;;;;5.13;1.00;;;10.70;99.90;;;;;;4992008;28;20199;-80
2023/04/12 01:31:31;;;;;;;2.47;0.70;;;10.70;99.90;;;;;;4991948;28;20195;-80
2023/04/12 01:33:58;;;;;;;2.97;0.80;;;10.60;99.90;;;;;;4992612;28;20633;-80
2023/04/12 01:36:26;;;;;;;2.88;0.90;;;10.60;99.90;;;;;;4991754;28;20178;-80
2023/04/12 01:38:53;;;;;;;3.25;1.13;;;10.50;99.90;;;;;;4991756;28;20167;-80
2023/04/12 01:41:20;;;;;;;2.75;0.70;;;10.50;99.90;;;;;;4975553;28;20195;-80
2023/04/12 01:43:47;;;;;;;3.97;0.70;;;10.50;99.90;;;;;;4975898;28;20179;-80
2023/04/12 01:46:15;;;;;;;1.70;0.90;;;10.40;99.90;;;;;;4992559;28;20534;-79
2023/04/12 01:48:47;;;;;;;3.25;0.82;;;10.40;99.90;;;;;;4991818;28;20341;-79
2023/04/12 01:51:22;;;;;;;3.15;0.90;;;10.40;99.90;;;;;;4992927;28;20202;-79
2023/04/12 01:53:58;;;;;;;2.78;0.80;;;10.40;99.90;;;;;;4992019;28;20679;-80
2023/04/12 01:56:30;;;;;;;3.50;0.80;;;10.30;99.90;;;;;;4990896;28;20174;-79
2023/04/12 01:58:57;;;;;;;2.95;1.05;;;10.30;99.90;;;;;;4991150;28;20171;-79
2023/04/12 02:01:24;;;;;;;3.95;0.80;;;10.30;99.90;;;;;;4974908;28;20230;-79
2023/04/12 02:03:51;;;;;;;4.13;0.90;;;10.30;99.90;;;;;;4977497;23;20225;-74
2023/04/12 02:06:21;;;;;;;3.35;0.90;;;10.30;99.90;;;;;;4991375;28;20179;-74
2023/04/12 02:08:47;;;;;;;5.07;1.48;;;10.30;99.90;;;;;;4990741;28;20199;-74
2023/04/12 02:11:13;;;;;;;2.95;0.82;;;10.30;99.90;;;;;;4991235;28;20643;-74
2023/04/12 02:13:40;;;;;;;1.90;0.70;;;10.30;99.90;;;;;;4991700;28;20190;-74
2023/04/12 02:16:06;;;;;;;4.85;1.02;;;10.20;99.90;;;;;;4991428;28;20686;-74
2023/04/12 02:18:36;;;;;;;2.55;0.90;;;10.20;99.90;;;;;;5006159;28;20260;-74
2023/04/12 02:21:02;;;;;;;1.60;1.00;;;10.30;99.90;;;;;;4977994;28;20174;-74
2023/04/12 02:23:28;;;;;;;1.93;0.67;;;10.20;99.90;;;;;;5011226;28;20265;-74
2023/04/12 02:25:54;;;;;;;5.20;0.80;;;10.20;99.90;;;;;;4993782;28;20178;-74
2023/04/12 02:28:21;;;;;;;3.40;0.90;;;10.20;99.90;;;;;;5010497;28;20237;-74
2023/04/12 02:30:48;;;;;;;1.98;0.70;;;10.20;99.90;;;;;;4977614;28;20585;-74
2023/04/12 02:33:14;;;;;;;1.63;0.70;;;10.20;99.90;;;;;;4994102;28;20182;-74
2023/04/12 02:35:42;;;;;;;1.52;0.70;;;10.20;99.90;;;;;;4993878;28;20186;-74
2023/04/12 02:38:12;;;;;;;2.17;0.63;;;10.20;99.90;;;;;;4994097;28;20210;-74
2023/04/12 02:40:40;;;;;;;1.80;0.88;;;10.10;99.90;;;;;;4993727;28;20661;-74
2023/04/12 02:43:09;;;;;;;1.88;0.80;;;10.10;99.90;;;;;;4994344;28;20261;-74
2023/04/12 02:45:40;;;;;;;2.35;0.82;;;10.10;99.90;;;;;;5011513;28;20194;-74
2023/04/12 02:48:08;;;;;;;2.95;0.80;;;10.10;99.90;;;;;;4994371;28;20197;-74
2023/04/12 02:50:36;;;;;;;5.15;1.00;;;10.10;99.90;;;;;;4998449;28;20182;-74
2023/04/12 02:53:12;;;;;;;2.42;1.00;;;10.10;99.90;;;;;;4998270;28;20197;-75
2023/04/12 02:55:40;;;;;;;3.45;0.80;;;10.00;99.90;;;;;;4998599;28;20194;-75
2023/04/12 02:58:07;;;;;;;3.75;1.02;;;10.00;99.90;;;;;;5003436;28;20250;-74
2023/04/12 03:00:42;;;;;;;3.30;0.90;;;9.90;99.90;;;;;;4999066;28;20174;-74
2023/04/12 03:03:09;;;;;;;2.60;1.05;;;9.90;99.90;;;;;;5033398;28;20174;-74
2023/04/12 03:05:35;;;;;;;5.73;1.33;;;9.90;99.90;;;;;;5000371;28;20263;-74
2023/04/12 03:08:01;;;;;;;5.25;1.00;;;9.90;99.90;;;;;;5011160;28;20202;-74
2023/04/12 03:10:37;;;;;;;2.10;0.82;;;9.90;99.90;;;;;;4998443;28;20170;-74
2023/04/12 03:13:03;;;;;;;2.03;0.60;;;9.90;99.90;;;;;;4997648;28;20174;-74
2023/04/12 03:15:36;;;;;;;1.50;0.73;;;9.90;99.90;;;;;;4997432;28;20204;-74
2023/04/12 03:18:02;;;;;;;4.57;1.15;;;9.90;99.90;;;;;;4997718;28;20182;-73
2023/04/12 03:20:32;;;;;;;2.42;0.85;;;9.90;99.90;;;;;;4995387;28;20175;-74
2023/04/12 03:23:02;;;;;;;4.78;1.50;;;9.80;99.90;;;;;;4978277;28;20175;-74
2023/04/12 03:25:30;;;;;;;4.47;1.10;;;9.80;99.90;;;;;;4977929;28;20203;-74
2023/04/12 03:28:05;;;;;;;3.78;1.13;;;9.90;99.90;;;;;;4995021;28;20598;-73
2023/04/12 03:30:44;;;;;;;6.63;1.25;;;9.90;99.90;;;;;;4963731;28;20182;-74
2023/04/12 03:33:11;;;;;;;6.22;1.40;;;9.70;99.90;;;;;;4994615;28;20175;-74
2023/04/12 03:35:39;;;;;;;6.00;1.23;;;9.70;99.90;;;;;;4994339;28;20273;-74
2023/04/12 03:38:06;;;;;;;5.55;1.70;;;9.70;99.90;;;;;;4977872;28;20206;-74
2023/04/12 03:40:31;;;;;;;5.23;1.60;;;9.60;99.90;;;;;;4994163;28;20604;-73
2023/04/12 03:42:57;;;;;;;2.63;1.10;;;9.60;99.90;;;;;;4977196;28;20203;-74
2023/04/12 03:45:23;;;;;;;3.47;1.42;;;9.60;99.90;;;;;;4994010;28;20749;-74
2023/04/12 03:47:53;;;;;;;4.20;1.00;;;9.60;99.90;;;;;;4993468;28;20675;-74
2023/04/12 03:50:21;;;;;;;1.75;1.10;;;9.60;99.90;;;;;;5010138;28;20229;-74
2023/04/12 03:52:53;;;;;;;2.70;1.38;;;9.60;99.90;;;;;;4977174;28;20167;-74
2023/04/12 03:55:19;;;;;;;3.10;1.40;;;9.60;99.90;;;;;;4977415;28;20187;-74
2023/04/12 03:57:50;;;;;;;3.55;1.42;;;9.60;99.90;;;;;;4993568;28;20175;-74
2023/04/12 04:00:16;;;;;;;3.95;1.10;;;9.60;99.90;;;;;;4993559;28;20875;-74
2023/04/12 04:03:01;;;;;;;5.35;1.35;;;9.60;99.90;;;;;;4977332;28;20623;-73
2023/04/12 04:05:31;;;;;;;2.90;1.00;;;9.60;99.90;;;;;;4976580;28;20301;-73
2023/04/12 04:08:01;;;;;;;4.45;1.20;;;9.60;99.90;;;;;;4993629;28;20210;-73
2023/04/12 04:10:27;;;;;;;3.80;1.70;;;9.60;99.90;;;;;;4976716;28;20178;-73
2023/04/12 04:12:55;;;;;;;2.58;1.45;;;9.50;99.90;;;;;;4993231;28;20254;-73
2023/04/12 04:15:21;;;;;;;3.17;1.60;;;9.60;99.90;;;;;;4976749;28;20285;-73
2023/04/12 04:17:51;;;;;;;3.95;1.30;;;9.50;99.90;;;;;;4960959;28;20609;-73
2023/04/12 04:20:19;;;;;;;2.30;1.08;;;9.60;99.90;;;;;;4972728;28;20176;-73
2023/04/12 04:22:48;;;;;;;2.30;1.33;;;9.60;99.90;;;;;;4973583;28;20183;-72
2023/04/12 04:25:15;;;;;;;4.78;1.75;;;9.60;99.90;;;;;;4957139;28;20203;-73
2023/04/12 04:27:48;;;;;;;3.10;1.50;;;9.60;99.90;;;;;;4973181;28;20212;-73
2023/04/12 04:30:15;;;;;;;4.40;1.30;;;9.60;99.90;;;;;;4957362;28;20176;-74
2023/04/12 04:32:44;;;;;;;4.93;1.45;;;9.60;99.90;;;;;;4973031;28;20171;-74
2023/04/12 04:35:15;;;;;;;3.05;1.00;;;9.60;99.90;;;;;;4957027;28;20195;-74
2023/04/12 04:37:53;;;;;;;4.20;1.23;;;9.60;99.90;;;;;;4973130;28;20179;-74
2023/04/12 04:40:20;;;;;;;3.05;1.17;;;9.60;99.90;;;;;;4973326;28;20290;-74
2023/04/12 04:42:53;;;;;;;5.65;1.48;;;9.60;99.90;;;;;;4973058;28;20258;-75
2023/04/12 04:45:25;;;;;;;3.72;1.40;;;9.60;99.90;;;;;;4957836;28;20669;-74
2023/04/12 04:48:05;;;;;;;3.13;1.13;;;9.60;99.90;;;;;;4973026;28;20207;-74
2023/04/12 04:50:31;;;;;;;4.87;1.50;;;9.60;99.90;;;;;;4957076;28;20452;-74
2023/04/12 04:52:57;;;;;;;2.70;1.27;;;9.60;99.90;;;;;;4957007;28;20680;-74
2023/04/12 04:55:24;;;;;;;3.23;1.37;;;9.60;99.90;;;;;;5002149;28;20346;-74
2023/04/12 04:57:50;;;;;;;3.25;1.10;;;9.60;99.90;;;;;;5012066;28;20269;-74
2023/04/12 05:00:17;;;;;;;2.90;1.88;;;9.60;99.90;;;;;;5011684;28;20535;-73
2023/04/12 05:02:50;;;;;;;6.28;1.48;;;9.60;99.90;;;;;;4995427;28;20197;-74
2023/04/12 05:05:22;;;;;;;4.75;2.10;;;9.50;99.90;;;;;;4995795;28;20210;-73
2023/04/12 05:07:50;;;;;;;3.85;1.20;;;9.50;99.90;;;;;;5011800;28;20202;-74
2023/04/12 05:10:16;;;;;;;4.57;1.53;;;9.50;99.90;;;;;;4988419;28;20183;-74
2023/04/12 05:12:42;;;;;;;2.13;1.17;;;9.50;99.90;;;;;;4991914;28;20528;-74
2023/04/12 05:15:09;;;;;;;3.00;1.35;;;9.50;99.90;;;;;;4975909;28;20187;-73
2023/04/12 05:17:35;;;;;;;3.80;1.30;;;9.50;99.90;;;;;;4975389;28;20183;-73
2023/04/12 05:20:04;;;;;;;3.20;1.23;;;9.50;99.90;;;;;;4975860;28;20186;-73
2023/04/12 05:22:30;;;;;;;6.88;1.75;;;9.50;99.90;;;;;;4991442;28;20582;-73
2023/04/12 05:24:57;;;;;;;3.75;1.60;;;9.50;99.90;;;;;;4991638;28;20199;-73
2023/04/12 05:27:29;;;;;;;4.50;1.80;;;9.50;99.90;;;;;;4991364;28;20281;-73
2023/04/12 05:29:58;;;;;;;5.30;1.80;;;9.50;99.90;;;;;;4992037;28;20175;-73
2023/04/12 05:35:40;;;;;;;5.03;1.90;;;9.40;99.90;;;;;;4985123;28;20797;-73
2023/04/12 05:38:05;;;;;;;3.17;1.23;;;9.40;99.90;;;;;;4975050;28;20171;-73
2023/04/12 05:40:32;;;;;;;3.97;1.63;;;9.40;99.90;;;;;;4975636;28;20270;-74
2023/04/12 05:42:58;;;;;;;2.35;1.52;;;9.40;99.90;;;;;;4975217;28;20183;-74
2023/04/12 05:45:25;;;;;;;3.85;1.60;;;9.50;99.90;;;;;;4975165;28;20190;-74
2023/04/12 05:47:53;;;;;;;4.95;1.10;;;9.50;99.90;;;;;;4991654;28;20297;-74
2023/04/12 05:50:20;;;;;;;2.50;1.50;;;9.50;99.90;;;;;;4991001;28;20171;-72
2023/04/12 05:52:49;;;;;;;2.65;1.80;;;9.50;99.90;;;;;;4992617;28;20171;-72
2023/04/12 05:55:16;;;;;;;3.05;1.17;;;9.40;99.90;;;;;;4974838;28;20199;-72
2023/04/12 05:57:45;;;;;;;4.75;1.52;;;9.50;99.90;;;;;;4975247;28;20224;-74
2023/04/12 06:00:16;;;;;;;6.18;2.15;;;9.50;99.90;;;;;;4990987;28;20179;-73
2023/04/12 06:02:49;;;;;;;2.78;1.15;;;9.40;99.90;;;;;;4975019;28;20635;-73
2023/04/12 06:05:18;;;;;;;4.20;1.58;;;9.50;99.90;;;;;;4974428;28;20218;-75
2023/04/12 06:07:47;;;;;;;3.28;1.20;;;9.50;99.90;;;;;;4982908;28;20769;-75
2023/04/12 06:10:16;;;;;;;2.53;1.63;;;9.50;99.90;;;;;;4994155;28;20556;-76
2023/04/12 06:12:44;;;;;;;4.32;1.73;;;9.50;99.90;;;;;;5007864;28;20252;-76
2023/04/12 06:15:10;;;;;;;3.80;1.40;;;9.60;99.90;;;;;;5006089;28;20190;-76
2023/04/12 06:17:36;;;;;;;6.60;1.58;;;9.50;99.90;;;;;;4994710;28;20187;-76
2023/04/12 06:20:09;;;;;;;2.85;1.50;;;9.50;99.90;;;;;;4989999;28;20249;-76
2023/04/12 06:22:37;;;;;;;4.18;1.35;;;9.50;99.90;;;;;;4990018;28;20181;-76
2023/04/12 06:25:04;;;;;;;3.25;1.70;;;9.50;99.90;;;;;;4974364;28;20203;-76
2023/04/12 06:27:30;;;;;;;4.20;1.70;;;9.50;99.90;;;;;;4964793;28;20198;-74
2023/04/12 06:29:56;;;;;;;3.17;1.95;;;9.50;99.90;;;;;;4985871;28;20170;-75
2023/04/12 06:32:23;;;;;;;7.25;1.55;;;9.50;99.90;;;;;;5000993;28;20206;-75
2023/04/12 06:34:49;;;;;;;1.70;0.90;;;9.60;99.90;;;;;;4999234;28;20198;-76
2023/04/12 06:37:18;;;;;;;3.13;2.17;;;9.60;99.90;;;;;;4994032;28;20265;-76
2023/04/12 06:39:44;;;;;;;2.40;1.10;;;9.60;99.90;;;;;;5011188;28;20573;-75
2023/04/12 06:42:10;;;;;;;5.67;1.70;;;9.70;99.90;;;;;;4993569;28;20229;-76
2023/04/12 06:44:38;;;;;;;2.15;1.20;;;9.70;99.90;;;;;;5009311;28;20194;-76
2023/04/12 06:47:04;;;;;;;4.53;1.27;;;9.70;99.90;;;;;;5009766;28;20174;-76
2023/04/12 06:49:30;;;;;;;2.17;1.17;;;9.70;99.90;;;;;;5011187;28;20274;-75
2023/04/12 06:51:56;;;;;;;2.53;1.00;;;9.70;99.90;;;;;;5009597;28;20257;-76
2023/04/12 06:54:22;;;;;;;1.80;1.10;;;9.70;99.90;;;;;;5011143;28;20249;-76
2023/04/12 06:56:49;;;;;;;8.45;1.75;;;9.70;99.90;;;;;;5010622;28;20186;-75
2023/04/12 06:59:14;;;;;;;2.83;1.10;;;9.80;99.90;;;;;;5010066;28;20174;-75
2023/04/12 07:01:40;;;;;;;2.63;1.10;;;9.80;99.90;;;;;;5010031;28;20689;-75
2023/04/12 07:04:06;;;;;;;2.73;1.30;;;9.90;99.90;;;;;;4982555;28;20206;-74
2023/04/12 07:06:31;;;;;;;3.03;1.27;;;9.80;99.90;;;;;;4990615;28;20206;-72
2023/04/12 07:08:57;;;;;;;1.57;1.00;;;9.80;99.90;;;;;;4992239;28;20264;-73
2023/04/12 07:11:23;;;;;;;2.60;1.23;;;9.90;99.90;;;;;;4991579;28;20167;-73
2023/04/12 07:13:50;;;;;;;1.90;1.23;;;9.90;99.90;;;;;;4990145;28;20244;-73
2023/04/12 07:16:18;;;;;;;3.35;1.20;;;10.00;99.90;;;;;;4990451;28;20171;-73
2023/04/12 07:18:44;;;;;;;3.38;1.73;;;10.00;99.90;;;;;;4990243;28;20233;-73
2023/04/12 07:21:13;;;;;;;1.93;0.90;;;10.00;99.90;;;;;;4974072;28;20643;-72
2023/04/12 07:23:39;;;;;;;2.85;1.27;;;10.00;99.90;;;;;;4973606;28;20585;-72
2023/04/12 07:26:05;;;;;;;3.35;1.00;;;10.10;99.90;;;;;;4974230;28;20175;-72
2023/04/12 07:28:31;;;;;;;2.25;1.25;;;10.10;99.90;;;;;;4991184;28;20191;-74
2023/04/12 07:30:56;;;;;;;2.30;1.20;;;10.10;99.90;;;;;;4991631;28;20171;-73
2023/04/12 07:33:24;;;;;;;1.87;0.90;;;10.10;99.90;;;;;;4991471;28;20305;-73
2023/04/12 07:35:51;;;;;;;2.25;1.23;;;10.20;99.90;;;;;;4973790;28;20262;-73
2023/04/12 07:38:17;;;;;;;1.40;0.80;;;10.20;99.90;;;;;;4991516;28;20298;-73
2023/04/12 07:40:42;;;;;;;2.43;0.90;;;10.10;99.90;;;;;;4991222;28;20175;-71
2023/04/12 07:43:08;;;;;;;4.43;1.27;;;10.20;99.90;;;;;;4991857;28;20266;-73
2023/04/12 07:45:36;;;;;;;4.10;1.30;;;10.20;99.90;;;;;;4989826;28;20290;-72
2023/04/12 07:48:02;;;;;;;1.80;0.95;;;10.20;99.90;;;;;;4991607;28;20207;-73
2023/04/12 07:50:28;;;;;;;1.70;1.00;;;10.30;99.90;;;;;;4991350;28;20230;-72
2023/04/12 07:53:15;;;;;;;2.63;1.23;;;10.40;99.90;;;;;;4991662;28;20171;-72
2023/04/12 07:55:41;;;;;;;2.55;1.20;;;10.30;99.90;;;;;;4992665;28;20195;-71
2023/04/12 07:58:08;;;;;;;1.83;0.90;;;10.40;99.90;;;;;;4994609;28;20535;-72
2023/04/12 08:00:34;;;;;;;1.73;0.90;;;10.40;99.90;;;;;;4993645;28;20190;-72
2023/04/12 08:03:00;;;;;;;1.40;0.90;;;10.40;99.90;;;;;;4994756;28;20175;-72
2023/04/12 08:05:26;;;;;;;2.10;1.10;;;10.40;99.90;;;;;;4993652;28;20628;-72
2023/04/12 08:07:52;;;;;;;2.33;1.00;;;10.40;99.90;;;;;;4976899;28;20289;-72
2023/04/12 08:10:18;;;;;;;2.27;1.00;;;10.40;99.90;;;;;;4993765;28;20203;-72
2023/04/12 08:12:43;;;;;;;1.63;1.10;;;10.50;99.90;;;;;;5011218;28;20178;-72
2023/04/12 08:15:10;;;;;;;2.77;0.90;;;10.50;99.90;;;;;;5013212;28;20198;-73
2023/04/12 08:17:35;;;;;;;2.38;1.02;;;10.60;99.90;;;;;;5014184;28;20178;-78
2023/04/12 08:20:03;;;;;;;1.77;0.97;;;10.60;99.90;;;;;;5010496;28;20619;-79
2023/04/12 08:22:30;;;;;;;1.63;1.00;;;10.70;99.90;;;;;;4994738;28;20218;-78
2023/04/12 08:24:56;;;;;;;2.28;0.95;;;10.70;99.90;;;;;;4992669;28;20195;-78
2023/04/12 08:27:22;;;;;;;1.70;1.10;;;10.80;99.90;;;;;;4976668;28;20774;-78
2023/04/12 08:29:47;;;;;;;2.90;1.00;;;10.80;99.90;;;;;;5002171;28;20984;-77
2023/04/12 08:32:13;;;;;;;1.87;0.80;;;10.90;99.90;;;;;;5011220;28;21662;-78
2023/04/12 08:34:39;;;;;;;1.60;1.07;;;11.00;99.90;;;;;;4992543;28;20697;-78
2023/04/12 08:37:05;;;;;;;2.22;1.27;;;11.00;99.90;;;;;;5001663;28;20178;-79
2023/04/12 08:39:31;;;;;;;1.70;1.00;;;11.10;99.90;;;;;;5009352;28;20527;-79
2023/04/12 08:41:58;;;;;;;1.70;0.90;;;11.20;99.90;;;;;;5013473;28;20561;-79
2023/04/12 08:44:37;;;;;;;1.55;0.88;;;11.30;99.90;;;;;;4996528;28;20654;-77
2023/04/12 08:47:04;;;;;;;1.67;0.73;;;11.40;99.90;;;;;;5012895;28;20202;-79
2023/04/12 08:49:31;;;;;;;1.45;0.90;;;11.50;99.90;;;;;;5013497;28;20163;-78
2023/04/12 08:52:01;;;;;;;2.08;1.30;;;11.50;99.90;;;;;;5012957;28;20174;-78
2023/04/12 08:54:27;;;;;;;1.65;0.90;;;11.50;99.90;;;;;;5010884;28;20198;-78
2023/04/12 08:57:05;;;;;;;2.35;0.90;;;11.60;99.90;;;;;;5003257;28;20185;-77
2023/04/12 08:59:32;;;;;;;1.98;0.85;;;11.60;99.90;;;;;;5012114;28;20170;-77
2023/04/12 09:01:58;;;;;;;1.60;0.80;;;11.70;99.90;;;;;;5012104;28;20174;-78
2023/04/12 09:04:28;;;;;;;1.90;1.05;;;11.80;99.90;;;;;;5012413;28;20201;-78
2023/04/12 09:06:54;;;;;;;1.98;1.00;;;11.90;99.90;;;;;;5011474;28;20228;-78
2023/04/12 09:09:46;;;;;;;2.80;0.93;;;11.90;99.90;;;;;;5011927;28;21261;-78
2023/04/12 09:12:13;;;;;;;1.85;0.80;;;12.00;99.90;;;;;;5011684;28;20174;-78
2023/04/12 09:14:39;;;;;;;1.88;1.10;;;12.20;99.90;;;;;;5005019;28;20205;-79
2023/04/12 09:17:23;;;;;;;1.42;0.90;;;12.20;99.90;;;;;;4976784;28;20167;-80
2023/04/12 09:19:50;;;;;;;2.00;1.10;;;12.20;99.90;;;;;;4989899;28;20179;-77
2023/04/12 09:22:15;;;;;;;2.53;1.00;;;12.30;99.90;;;;;;4975721;28;20178;-77
2023/04/12 09:24:47;;;;;;;2.70;1.30;;;12.20;99.90;;;;;;4991493;28;20576;-76
2023/04/12 09:27:12;;;;;;;1.63;0.82;;;12.20;99.90;;;;;;4993621;28;20570;-76
2023/04/12 09:29:38;;;;;;;1.57;0.80;;;12.20;99.90;;;;;;4991590;28;20274;-78
2023/04/12 09:32:06;;;;;;;1.83;1.30;;;12.20;99.90;;;;;;4992552;28;20183;-76
2023/04/12 09:34:36;;;;;;;2.83;2.50;;;12.20;99.90;;;;;;4991691;28;20279;-80
2023/04/12 09:37:15;;;;;;;1.70;0.85;;;12.20;99.90;;;;;;4991084;28;20191;-76
2023/04/12 09:39:42;;;;;;;1.70;0.90;;;12.20;99.90;;;;;;4993109;28;20593;-77
2023/04/12 09:42:10;;;;;;;1.48;1.00;;;12.20;99.90;;;;;;4992533;28;20552;-78
2023/04/12 09:44:36;;;;;;;2.15;1.10;;;12.30;99.90;;;;;;4993095;28;20259;-76
2023/04/12 09:47:04;;;;;;;1.90;1.20;;;12.30;99.90;;;;;;4993002;28;20242;-78
2023/04/12 09:49:40;;;;;;;2.65;0.90;;;12.30;99.90;;;;;;4991718;28;20175;-78
2023/04/12 09:52:09;;;;;;;1.58;1.00;;;12.20;99.90;;;;;;5004163;28;20496;-78
2023/04/12 09:54:45;;;;;;;3.45;1.10;;;12.20;99.90;;;;;;4994712;28;20671;-78
2023/04/12 09:57:11;;;;;;;1.75;0.90;;;12.20;99.90;;;;;;4991545;28;20213;-77
2023/04/12 09:59:39;;;;;;;2.20;0.77;;;12.10;99.90;;;;;;4992657;28;20193;-81
2023/04/12 10:02:12;;;;;;;1.40;0.95;;;12.10;99.90;;;;;;4991907;28;20179;-80
2023/04/12 10:04:39;;;;;;;1.60;0.90;;;12.00;99.90;;;;;;4990684;28;20198;-78
2023/04/12 10:07:05;;;;;;;1.40;0.95;;;12.00;99.90;;;;;;4975303;28;20257;-78
2023/04/12 10:09:38;;;;;;;2.50;1.17;;;12.10;99.90;;;;;;4992238;28;20167;-76
2023/04/12 10:12:05;;;;;;;2.70;1.20;;;12.10;99.90;;;;;;4990968;28;20206;-77
2023/04/12 10:14:31;;;;;;;2.55;1.13;;;12.10;99.90;;;;;;4991818;28;20191;-80
2023/04/12 10:17:02;;;;;;;3.40;1.30;;;12.30;99.90;;;;;;4990437;28;20241;-77
2023/04/12 10:19:30;;;;;;;2.90;1.00;;;12.50;99.90;;;;;;4973437;28;20210;-76
2023/04/12 10:21:56;;;;;;;1.95;1.00;;;12.80;99.90;;;;;;4991054;28;20179;-77
2023/04/12 10:24:27;;;;;;;1.70;1.20;;;12.90;99.90;;;;;;4990750;28;20240;-79
2023/04/12 10:27:01;;;;;;;1.77;1.15;;;13.10;99.90;;;;;;4991362;28;20566;-75
2023/04/12 10:29:35;;;;;;;2.03;1.03;;;13.30;99.90;;;;;;4990843;28;20182;-77
2023/04/12 10:32:21;;;;;;;2.92;1.52;;;13.50;99.90;;;;;;4989979;28;21105;-76
2023/04/12 10:34:55;;;;;;;1.88;1.15;;;13.60;99.90;;;;;;4990514;28;20616;-77
2023/04/12 10:37:21;;;;;;;1.88;0.90;;;13.70;99.90;;;;;;4991851;28;20220;-76
2023/04/12 10:39:54;;;;;;;1.50;0.80;;;13.80;99.90;;;;;;5006719;28;20167;-73
2023/04/12 10:42:27;;;;;;;2.47;0.95;;;13.80;99.90;;;;;;4991941;28;20175;-72
2023/04/12 10:45:34;;;;;;;1.48;0.90;;;13.90;99.90;;;;;;4974013;28;20197;-73
2023/04/12 10:48:00;;;;;;;1.50;0.95;;;13.90;99.90;;;;;;4990678;28;20195;-73
2023/04/12 10:50:31;;;;;;;1.50;0.90;;;13.80;99.90;;;;;;4990605;28;20258;-74
2023/04/12 10:53:11;;;;;;;4.13;1.20;;;13.70;99.90;;;;;;4990392;28;20713;-73
2023/04/12 10:55:44;;;;;;;1.60;0.90;;;13.70;99.90;;;;;;4973786;28;20190;-73
2023/04/12 10:58:57;;;;;;;2.55;1.05;;;13.60;99.90;;;;;;4974403;28;20210;-73
2023/04/12 11:01:25;;;;;;;2.97;0.63;;;13.60;99.90;;;;;;5003077;28;20601;-73
2023/04/12 11:04:11;;;;;;;1.40;0.70;;;13.50;99.90;;;;;;4990411;28;20213;-73
2023/04/12 11:07:02;;;;;;;1.70;0.75;;;13.40;99.90;;;;;;4991332;28;20635;-73
2023/04/12 11:09:42;;;;;;;2.05;1.00;;;13.40;99.90;;;;;;4991888;28;20171;-77
2023/04/12 11:12:15;;;;;;;2.55;0.90;;;13.40;99.90;;;;;;4989375;28;20292;-77
2023/04/12 11:14:48;;;;;;;1.75;0.82;;;13.50;99.90;;;;;;4991464;28;20570;-77
2023/04/12 11:17:17;;;;;;;3.33;1.20;;;13.50;99.90;;;;;;4990854;28;20261;-76
2023/04/12 11:19:53;;;;;;;4.47;1.30;;;13.60;99.90;;;;;;4991777;28;20164;-77
2023/04/12 11:22:21;;;;;;;2.70;1.30;;;13.60;99.90;;;;;;4985837;28;20201;-76
2023/04/12 11:24:56;;;;;;;4.00;1.70;;;13.70;99.90;;;;;;4990774;28;20195;-77
2023/04/12 11:27:24;;;;;;;2.47;1.05;;;13.80;99.90;;;;;;4991346;28;20207;-76
2023/04/12 11:29:54;;;;;;;2.63;1.55;;;13.90;99.90;;;;;;4991135;28;20264;-76
2023/04/12 11:32:28;;;;;;;2.30;1.77;;;14.00;99.90;;;;;;4993790;28;20179;-77
2023/04/12 11:34:55;;;;;;;4.35;1.65;;;14.20;99.90;;;;;;4993076;28;20723;-76
2023/04/12 11:37:22;;;;;;;5.20;1.87;;;14.30;99.90;;;;;;4977781;28;20183;-72
2023/04/12 11:39:51;;;;;;;2.90;1.27;;;14.40;99.90;;;;;;4994775;28;20585;-72
2023/04/12 11:42:19;;;;;;;6.43;1.70;;;14.50;99.90;;;;;;4993985;28;20581;-73
2023/04/12 11:44:46;;;;;;;2.47;1.13;;;14.60;99.90;;;;;;5010124;28;20697;-72
2023/04/12 11:47:17;;;;;;;2.53;1.10;;;14.70;99.90;;;;;;4993501;28;20598;-72
2023/04/12 11:49:44;;;;;;;3.30;1.10;;;14.80;99.90;;;;;;4993705;28;20597;-72
2023/04/12 11:52:09;;;;;;;3.10;1.20;;;15.00;99.90;;;;;;4993078;28;20645;-73
2023/04/12 11:54:35;;;;;;;1.83;1.03;;;15.10;99.90;;;;;;4993613;28;20617;-72
2023/04/12 11:57:03;;;;;;;2.57;1.00;;;15.20;99.90;;;;;;4994275;28;20671;-72
2023/04/12 11:59:34;;;;;;;2.90;0.90;;;15.30;99.90;;;;;;4994872;28;20543;-72
2023/04/12 12:02:03;;;;;;;3.20;1.00;;;15.40;99.90;;;;;;4993247;28;20712;-72
2023/04/12 12:04:30;;;;;;;2.33;1.10;;;15.60;99.90;;;;;;4993196;28;20657;-72
2023/04/12 12:06:59;;;;;;;2.50;0.80;;;15.70;99.90;;;;;;4993696;28;20986;-72
2023/04/12 12:09:28;;;;;;;2.23;0.90;;;15.80;99.90;;;;;;4994304;28;20636;-72
2023/04/12 12:11:55;;;;;;;3.73;1.00;;;15.90;99.90;;;;;;4993299;28;20613;-72
2023/04/12 12:14:22;;;;;;;3.93;1.00;;;16.00;99.90;;;;;;4994175;28;20961;-72
2023/04/12 12:16:55;;;;;;;2.23;0.90;;;16.00;99.90;;;;;;4994720;28;20578;-77
2023/04/12 12:19:26;;;;;;;2.90;0.80;;;16.10;99.90;;;;;;4992790;28;20663;-77
2023/04/12 12:21:52;;;;;;;2.33;0.80;;;16.20;99.90;;;;;;4987689;28;20593;-77
2023/04/12 12:24:18;;;;;;;3.20;1.00;;;16.30;99.90;;;;;;4992832;28;20626;-78
2023/04/12 12:26:44;;;;;;;2.40;0.97;;;16.40;99.90;;;;;;4994030;28;20241;-77
2023/04/12 12:29:17;;;;;;;1.60;0.80;;;16.40;99.90;;;;;;4976836;28;20272;-77
2023/04/12 12:31:47;;;;;;;3.67;0.80;;;16.50;99.90;;;;;;4992389;28;20578;-78
2023/04/12 12:34:13;;;;;;;1.97;0.70;;;16.60;99.90;;;;;;4992870;28;20610;-78
2023/04/12 12:36:39;;;;;;;1.80;0.70;;;16.80;99.90;;;;;;4993326;28;20565;-77
2023/04/12 12:39:11;;;;;;;4.20;0.87;;;17.00;99.90;;;;;;4998172;28;20628;-78
2023/04/12 12:41:38;;;;;;;3.60;0.97;;;17.20;99.90;;;;;;5003947;28;20566;-77
2023/04/12 12:44:04;;;;;;;1.90;0.70;;;17.50;99.90;;;;;;5013464;28;20612;-77
2023/04/12 12:46:30;;;;;;;2.07;0.70;;;17.60;99.90;;;;;;5013142;28;20587;-77
2023/04/12 12:48:56;;;;;;;2.93;0.70;;;17.80;99.90;;;;;;5012228;28;20731;-78
2023/04/12 12:51:22;;;;;;;1.97;0.70;;;18.00;99.90;;;;;;5013477;28;21116;-77
2023/04/12 12:53:47;;;;;;;2.67;0.70;;;18.10;99.90;;;;;;5012645;28;20613;-78
2023/04/12 12:56:14;;;;;;;4.43;1.37;;;18.30;99.90;;;;;;5013030;28;20181;-78
2023/04/12 12:58:41;;;;;;;2.70;0.80;;;18.50;99.90;;;;;;5011355;28;20281;-78
2023/04/12 13:01:07;;;;;;;3.13;0.70;;;18.70;99.90;;;;;;5012045;28;20580;-78
2023/04/12 13:04:13;;;;;;;4.17;0.73;;;18.90;99.90;;;;;;5016753;28;20577;-77